createdAt,value
2022-11-23T00:01:39.368Z,61.15
2022-11-23T00:06:43.498Z,61.12
2022-11-23T00:11:46.292Z,61.21
2022-11-23T00:16:49.114Z,61.26
2022-11-23T00:21:53.251Z,61.34
2022-11-23T00:26:56.027Z,61.24
2022-11-23T00:31:58.832Z,61.29
2022-11-23T00:37:02.951Z,61.28
2022-11-23T00:42:06.040Z,61.07
2022-11-23T00:47:08.893Z,61.17
2022-11-23T00:52:13.112Z,61.29
2022-11-23T00:57:15.928Z,61.32
2022-11-23T01:02:20.305Z,61.47
2022-11-23T01:07:24.521Z,61.64
2022-11-23T01:12:29.201Z,61.80
2022-11-23T01:17:31.967Z,61.86
2022-11-23T01:22:36.098Z,61.99
2022-11-23T01:27:38.922Z,62.30
2022-11-23T01:32:41.683Z,62.41
2022-11-23T01:37:45.797Z,62.49
2022-11-23T01:42:54.900Z,62.54
2022-11-23T01:47:57.702Z,62.58
2022-11-23T01:53:01.946Z,62.78
2022-11-23T01:58:09.073Z,62.85
2022-11-23T02:03:12.035Z,62.82
2022-11-23T02:08:17.864Z,62.96
2022-11-23T02:13:20.974Z,63.02
2022-11-23T02:18:26.011Z,63.01
2022-11-23T02:23:39.073Z,63.12
2022-11-23T02:28:46.770Z,63.21
2022-11-23T02:33:49.565Z,63.38
2022-11-23T02:38:53.109Z,63.48
2022-11-23T02:43:58.920Z,63.35
2022-11-23T02:49:01.932Z,63.32
2022-11-23T02:54:04.944Z,63.52
2022-11-23T02:59:11.968Z,63.44
2022-11-23T03:04:15.428Z,63.63
2022-11-23T03:09:18.455Z,63.65
2022-11-23T03:14:23.068Z,63.69
2022-11-23T03:19:33.299Z,63.79
2022-11-23T03:24:37.410Z,63.73
2022-11-23T03:29:43.185Z,63.84
2022-11-23T03:34:51.791Z,63.96
2022-11-23T03:39:56.438Z,63.85
2022-11-23T03:45:32.708Z,63.85
2022-11-23T03:50:36.096Z,63.85
2022-11-23T03:55:39.066Z,63.98
2022-11-23T04:00:43.537Z,63.79
2022-11-23T04:05:49.265Z,63.87
2022-11-23T04:11:10.768Z,63.91
2022-11-23T04:16:16.736Z,63.97
2022-11-23T04:21:19.655Z,63.92
2022-11-23T04:26:22.586Z,64.13
2022-11-23T04:31:26.738Z,64.08
2022-11-23T04:36:44.973Z,64.07
2022-11-23T04:41:49.681Z,64.23
2022-11-23T04:46:54.152Z,64.13
2022-11-23T04:51:57.575Z,64.04
2022-11-23T04:57:06.970Z,64.20
2022-11-23T05:02:11.766Z,64.02
2022-11-23T05:07:14.652Z,63.92
2022-11-23T05:12:20.959Z,63.99
2022-11-23T05:17:25.498Z,64.09
2022-11-23T05:22:30.399Z,64.03
2022-11-23T05:27:34.228Z,63.94
2022-11-23T05:32:38.903Z,63.90
2022-11-23T05:37:42.787Z,63.91
2022-11-23T05:42:47.721Z,63.82
2022-11-23T05:47:59.419Z,63.79
2022-11-23T05:53:14.062Z,63.97
2022-11-23T05:58:19.669Z,64.02
2022-11-23T06:03:25.224Z,64.01
2022-11-23T06:08:28.103Z,63.79
2022-11-23T06:13:31.377Z,63.84
2022-11-23T06:18:36.333Z,64.08
2022-11-23T06:23:39.219Z,63.89
2022-11-23T06:28:43.748Z,63.86
2022-11-23T06:33:48.032Z,63.80
2022-11-23T06:38:50.992Z,63.90
2022-11-23T06:43:58.568Z,63.75
2022-11-23T06:49:13.613Z,63.88
2022-11-23T06:54:22.201Z,63.82
2022-11-23T06:59:27.644Z,63.28
2022-11-23T07:04:31.949Z,63.36
2022-11-23T07:09:35.210Z,63.23
2022-11-23T07:14:54.897Z,63.07
2022-11-23T07:19:59.421Z,63.38
2022-11-23T07:25:02.286Z,63.42
2022-11-23T07:30:06.261Z,63.54
2022-11-23T07:35:12.580Z,63.59
2022-11-23T07:40:18.805Z,63.44
2022-11-23T07:45:22.965Z,63.34
2022-11-23T07:50:32.180Z,63.45
2022-11-23T07:55:36.166Z,63.50
2022-11-23T08:00:39.289Z,63.35
2022-11-23T08:05:43.464Z,63.43
2022-11-23T08:10:51.430Z,63.52
2022-11-23T08:15:56.232Z,63.33
2022-11-23T08:21:01.727Z,63.34
2022-11-23T08:26:09.078Z,63.51
2022-11-23T08:31:16.418Z,63.72
2022-11-23T08:36:20.864Z,63.45
2022-11-23T08:41:23.757Z,63.50
2022-11-23T08:46:26.544Z,63.42
2022-11-23T08:51:30.683Z,63.41
2022-11-23T08:56:33.538Z,63.50
2022-11-23T09:01:36.409Z,63.73
2022-11-23T09:06:40.678Z,63.67
2022-11-23T09:11:43.501Z,63.73
2022-11-23T09:16:46.336Z,64.00
2022-11-23T09:21:50.638Z,63.69
2022-11-23T09:26:53.516Z,63.77
2022-11-23T09:31:56.387Z,63.80
2022-11-23T09:37:00.615Z,63.91
2022-11-23T09:42:45.049Z,64.01
2022-11-23T09:48:02.962Z,63.67
2022-11-23T09:53:14.611Z,63.74
2022-11-23T09:58:19.773Z,64.10
2022-11-23T10:03:22.626Z,63.92
2022-11-23T10:08:37.451Z,63.97
2022-11-23T10:13:46.170Z,63.73
2022-11-23T10:18:58.670Z,64.04
2022-11-23T10:24:13.016Z,64.16
2022-11-23T10:29:18.081Z,64.22
2022-11-23T10:34:30.688Z,64.19
2022-11-23T10:39:35.134Z,64.21
2022-11-23T10:44:39.765Z,64.18
2022-11-23T10:49:58.323Z,52.77
2022-11-23T10:55:09.190Z,51.08
2022-11-23T11:00:18.275Z,51.04
2022-11-23T11:06:06.875Z,52.22
2022-11-23T11:11:01.291Z,53.65
2022-11-23T11:16:07.003Z,54.95
2022-11-23T11:21:21.936Z,55.21
2022-11-23T11:26:28.263Z,56.06
2022-11-23T11:31:54.970Z,56.78
2022-11-23T11:37:05.339Z,57.19
2022-11-23T11:42:19.101Z,57.76
2022-11-23T11:47:32.098Z,57.88
2022-11-23T11:52:40.127Z,58.03
2022-11-23T11:57:49.141Z,58.58
2022-11-23T12:03:02.047Z,58.90
2022-11-23T12:08:09.606Z,59.48
2022-11-23T12:13:16.862Z,60.10
2022-11-23T12:18:57.674Z,60.43
2022-11-23T12:24:09.533Z,60.62
2022-11-23T12:29:36.494Z,60.73
2022-11-23T12:35:17.990Z,60.81
2022-11-23T12:40:35.131Z,61.14
2022-11-23T12:45:55.364Z,60.91
2022-11-23T12:51:13.548Z,61.25
2022-11-23T12:56:31.740Z,61.43
2022-11-23T13:01:42.426Z,61.55
2022-11-23T13:07:27.317Z,61.45
2022-11-23T13:12:45.464Z,61.61
2022-11-23T13:17:57.216Z,61.63
2022-11-23T13:23:06.430Z,62.04
2022-11-23T13:28:33.184Z,62.15
2022-11-23T13:33:39.764Z,62.55
2022-11-23T13:38:44.355Z,62.54
2022-11-23T13:43:47.717Z,62.75
2022-11-23T13:48:57.762Z,62.74
2022-11-23T13:54:04.127Z,62.90
2022-11-23T13:59:30.715Z,62.97
2022-11-23T14:04:37.114Z,63.34
2022-11-23T14:09:46.714Z,63.32
2022-11-23T14:15:01.952Z,64.25
2022-11-23T14:20:40.065Z,65.01
2022-11-23T14:25:56.858Z,65.26
2022-11-23T14:31:13.325Z,65.82
2022-11-23T14:36:31.798Z,65.97
2022-11-23T14:41:37.025Z,66.16
2022-11-23T14:47:00.543Z,66.18
2022-11-23T14:52:06.631Z,66.63
2022-11-23T14:57:15.112Z,66.75
2022-11-23T15:02:21.769Z,67.19
2022-11-23T15:07:29.288Z,67.06
2022-11-23T15:12:42.802Z,67.33
2022-11-23T15:17:52.927Z,67.33
2022-11-23T15:22:57.126Z,67.56
2022-11-23T15:28:00.012Z,67.76
2022-11-23T15:33:08.260Z,67.81
2022-11-23T15:38:22.047Z,67.95
2022-11-23T15:43:26.370Z,68.12
2022-11-23T15:48:31.999Z,68.07
2022-11-23T15:53:47.511Z,68.23
2022-11-23T15:58:51.929Z,68.45
2022-11-23T16:04:01.021Z,68.63
2022-11-23T16:09:49.683Z,68.79
2022-11-23T16:14:49.020Z,68.87
2022-11-23T16:19:53.834Z,68.82
2022-11-23T16:25:04.431Z,68.33
2022-11-23T16:30:23.332Z,68.17
2022-11-23T16:35:26.328Z,67.76
2022-11-23T16:40:32.226Z,67.45
2022-11-23T16:45:35.237Z,67.11
2022-11-23T16:50:38.048Z,67.05
2022-11-23T16:55:43.711Z,67.39
2022-11-23T17:00:49.137Z,67.50
2022-11-23T17:05:52.011Z,67.52
2022-11-23T17:10:57.124Z,67.34
2022-11-23T17:16:00.416Z,67.39
2022-11-23T17:21:03.252Z,66.98
2022-11-23T17:26:08.232Z,66.78
2022-11-23T17:31:11.562Z,66.42
2022-11-23T17:36:14.410Z,65.93
2022-11-23T17:41:18.702Z,65.80
2022-11-23T17:46:24.678Z,65.54
2022-11-23T17:51:28.261Z,65.07
2022-11-23T17:56:32.843Z,65.03
2022-11-23T18:01:35.812Z,64.97
2022-11-23T18:06:38.992Z,64.71
2022-11-23T18:11:43.233Z,64.24
2022-11-23T18:16:46.057Z,64.13
2022-11-23T18:21:49.039Z,64.22
2022-11-23T18:26:53.274Z,63.98
2022-11-23T18:31:56.258Z,63.91
2022-11-23T18:36:59.202Z,63.93
2022-11-23T18:42:05.928Z,63.80
2022-11-23T18:47:09.337Z,63.69
2022-11-23T18:52:13.787Z,63.66
2022-11-23T18:57:18.930Z,63.80
2022-11-23T19:02:21.823Z,63.75
2022-11-23T19:07:27.062Z,63.51
2022-11-23T19:12:31.662Z,63.43
2022-11-23T19:17:35.171Z,63.18
2022-11-23T19:22:38.027Z,63.16
2022-11-23T19:27:42.131Z,63.21
2022-11-23T19:32:45.175Z,63.03
2022-11-23T19:37:48.149Z,62.80
2022-11-23T19:42:52.276Z,62.61
2022-11-23T19:47:55.388Z,62.38
2022-11-23T19:53:12.401Z,62.15
2022-11-23T19:58:17.770Z,62.03
2022-11-23T20:03:20.717Z,62.05
2022-11-23T20:08:23.585Z,61.85
2022-11-23T20:13:27.801Z,61.80
2022-11-23T20:18:30.565Z,61.54
2022-11-23T20:23:33.689Z,61.22
2022-11-23T20:28:38.215Z,61.29
2022-11-23T20:33:41.010Z,60.91
2022-11-23T20:38:44.306Z,61.02
2022-11-23T20:43:50.410Z,60.77
2022-11-23T20:48:53.377Z,60.74
2022-11-23T20:53:56.499Z,60.45
2022-11-23T20:59:01.011Z,60.53
2022-11-23T21:04:03.886Z,60.43
2022-11-23T21:09:06.766Z,60.30
2022-11-23T21:14:17.786Z,59.85
2022-11-23T21:19:22.569Z,60.09
2022-11-23T21:24:26.140Z,60.01
2022-11-23T21:29:31.086Z,60.24
2022-11-23T21:34:34.415Z,60.20
2022-11-23T21:39:38.050Z,60.41
2022-11-23T21:44:42.278Z,60.50
2022-11-23T21:49:45.237Z,60.46
2022-11-23T21:54:49.262Z,60.46
2022-11-23T21:59:54.117Z,60.59
2022-11-23T22:04:56.919Z,60.74
2022-11-23T22:09:59.845Z,60.58
2022-11-23T22:15:04.464Z,60.89
2022-11-23T22:20:09.288Z,60.61
2022-11-23T22:25:12.233Z,60.72
2022-11-23T22:30:17.710Z,60.76
2022-11-23T22:35:20.640Z,60.86
2022-11-23T22:40:23.469Z,60.78
2022-11-23T22:45:27.724Z,61.02
2022-11-23T22:50:30.688Z,60.85
2022-11-23T22:55:33.531Z,60.83
2022-11-23T23:00:37.715Z,60.85
2022-11-23T23:05:40.540Z,60.83
2022-11-23T23:10:43.394Z,61.01
2022-11-23T23:15:47.895Z,61.01
2022-11-23T23:20:50.810Z,61.10
2022-11-23T23:25:54.730Z,61.05
2022-11-23T23:31:02.631Z,61.29
2022-11-23T23:36:06.415Z,60.92
2022-11-23T23:41:10.754Z,61.04
2022-11-23T23:46:15.024Z,61.11
2022-11-23T23:51:19.313Z,61.22
2022-11-23T23:56:23.486Z,61.06
